sensor_id;sensor_type;location;lat;lon;timestamp;P1;durP1;ratioP1;P2;durP2;ratioP2
70026;SDS011;57506;50.092;15.804;2023-05-29T00:00:13;1.50;;;0.20;;
70026;SDS011;57506;50.092;15.804;2023-05-29T00:02:43;1.60;;;0.30;;
70026;SDS011;57506;50.092;15.804;2023-05-29T00:05:10;1.60;;;0.30;;
70026;SDS011;57506;50.092;15.804;2023-05-29T00:07:37;1.60;;;0.20;;
70026;SDS011;57506;50.092;15.804;2023-05-29T00:10:04;1.50;;;0.20;;
70026;SDS011;57506;50.092;15.804;2023-05-29T00:12:31;1.40;;;0.20;;
70026;SDS011;57506;50.092;15.804;2023-05-29T00:14:57;1.40;;;0.20;;
70026;SDS011;57506;50.092;15.804;2023-05-29T00:17:22;1.40;;;0.20;;
70026;SDS011;57506;50.092;15.804;2023-05-29T00:19:48;1.33;;;0.20;;
70026;SDS011;57506;50.092;15.804;2023-05-29T00:22:14;1.50;;;0.20;;
70026;SDS011;57506;50.092;15.804;2023-05-29T00:24:40;1.30;;;0.20;;
70026;SDS011;57506;50.092;15.804;2023-05-29T00:27:05;1.60;;;0.30;;
70026;SDS011;57506;50.092;15.804;2023-05-29T00:29:31;1.50;;;0.20;;
70026;SDS011;57506;50.092;15.804;2023-05-29T00:31:56;1.30;;;0.20;;
70026;SDS011;57506;50.092;15.804;2023-05-29T00:34:22;1.63;;;0.30;;
70026;SDS011;57506;50.092;15.804;2023-05-29T00:36:48;1.40;;;0.20;;
70026;SDS011;57506;50.092;15.804;2023-05-29T00:39:14;1.35;;;0.20;;
70026;SDS011;57506;50.092;15.804;2023-05-29T00:41:40;1.60;;;0.30;;
70026;SDS011;57506;50.092;15.804;2023-05-29T00:44:06;1.50;;;0.20;;
70026;SDS011;57506;50.092;15.804;2023-05-29T00:46:32;1.70;;;0.30;;
70026;SDS011;57506;50.092;15.804;2023-05-29T00:48:58;1.40;;;0.20;;
70026;SDS011;57506;50.092;15.804;2023-05-29T00:51:25;1.30;;;0.20;;
70026;SDS011;57506;50.092;15.804;2023-05-29T00:53:51;1.60;;;0.30;;
70026;SDS011;57506;50.092;15.804;2023-05-29T00:56:18;1.20;;;0.20;;
70026;SDS011;57506;50.092;15.804;2023-05-29T00:58:45;1.60;;;0.30;;
70026;SDS011;57506;50.092;15.804;2023-05-29T01:01:13;1.60;;;0.30;;
70026;SDS011;57506;50.092;15.804;2023-05-29T01:03:39;1.60;;;0.20;;
70026;SDS011;57506;50.092;15.804;2023-05-29T01:06:06;1.40;;;0.20;;
70026;SDS011;57506;50.092;15.804;2023-05-29T01:08:32;1.40;;;0.20;;
70026;SDS011;57506;50.092;15.804;2023-05-29T01:11:08;1.92;;;0.95;;
70026;SDS011;57506;50.092;15.804;2023-05-29T01:13:42;1.60;;;0.30;;
70026;SDS011;57506;50.092;15.804;2023-05-29T01:16:21;1.70;;;0.30;;
70026;SDS011;57506;50.092;15.804;2023-05-29T01:19:10;1.17;;;0.20;;
70026;SDS011;57506;50.092;15.804;2023-05-29T01:21:50;1.50;;;0.20;;
70026;SDS011;57506;50.092;15.804;2023-05-29T01:27:06;1.30;;;0.20;;
70026;SDS011;57506;50.092;15.804;2023-05-29T01:29:35;1.40;;;0.20;;
70026;SDS011;57506;50.092;15.804;2023-05-29T01:32:04;1.38;;;0.20;;
70026;SDS011;57506;50.092;15.804;2023-05-29T01:34:30;1.70;;;0.30;;
70026;SDS011;57506;50.092;15.804;2023-05-29T01:36:56;1.50;;;0.20;;
70026;SDS011;57506;50.092;15.804;2023-05-29T01:39:22;1.40;;;0.20;;
70026;SDS011;57506;50.092;15.804;2023-05-29T01:41:49;1.20;;;0.20;;
70026;SDS011;57506;50.092;15.804;2023-05-29T01:44:15;1.45;;;0.20;;
70026;SDS011;57506;50.092;15.804;2023-05-29T01:46:41;1.50;;;0.20;;
70026;SDS011;57506;50.092;15.804;2023-05-29T01:49:08;1.50;;;0.20;;
70026;SDS011;57506;50.092;15.804;2023-05-29T01:51:36;1.30;;;0.20;;
70026;SDS011;57506;50.092;15.804;2023-05-29T01:54:02;1.37;;;0.20;;
70026;SDS011;57506;50.092;15.804;2023-05-29T01:56:29;1.58;;;0.20;;
70026;SDS011;57506;50.092;15.804;2023-05-29T01:58:56;1.50;;;0.20;;
70026;SDS011;57506;50.092;15.804;2023-05-29T02:01:22;1.58;;;0.20;;
70026;SDS011;57506;50.092;15.804;2023-05-29T02:03:48;1.50;;;0.20;;
70026;SDS011;57506;50.092;15.804;2023-05-29T02:06:13;1.50;;;0.20;;
70026;SDS011;57506;50.092;15.804;2023-05-29T02:08:39;3.55;;;0.70;;
70026;SDS011;57506;50.092;15.804;2023-05-29T02:11:05;1.50;;;0.20;;
70026;SDS011;57506;50.092;15.804;2023-05-29T02:13:31;1.70;;;0.30;;
70026;SDS011;57506;50.092;15.804;2023-05-29T02:15:57;1.33;;;0.20;;
70026;SDS011;57506;50.092;15.804;2023-05-29T02:18:22;1.40;;;0.20;;
70026;SDS011;57506;50.092;15.804;2023-05-29T02:20:48;1.30;;;0.20;;
70026;SDS011;57506;50.092;15.804;2023-05-29T02:23:14;1.40;;;0.20;;
70026;SDS011;57506;50.092;15.804;2023-05-29T02:25:40;1.40;;;0.20;;
70026;SDS011;57506;50.092;15.804;2023-05-29T02:28:06;1.60;;;0.30;;
70026;SDS011;57506;50.092;15.804;2023-05-29T02:30:32;1.63;;;0.30;;
70026;SDS011;57506;50.092;15.804;2023-05-29T02:32:58;1.50;;;0.20;;
70026;SDS011;57506;50.092;15.804;2023-05-29T02:35:23;1.40;;;0.20;;
70026;SDS011;57506;50.092;15.804;2023-05-29T02:37:49;1.33;;;0.20;;
70026;SDS011;57506;50.092;15.804;2023-05-29T02:40:16;1.20;;;0.20;;
70026;SDS011;57506;50.092;15.804;2023-05-29T02:42:42;1.42;;;0.20;;
70026;SDS011;57506;50.092;15.804;2023-05-29T02:45:08;1.23;;;0.20;;
70026;SDS011;57506;50.092;15.804;2023-05-29T02:47:35;1.30;;;0.20;;
70026;SDS011;57506;50.092;15.804;2023-05-29T02:50:01;1.08;;;0.20;;
70026;SDS011;57506;50.092;15.804;2023-05-29T02:52:27;1.23;;;0.20;;
70026;SDS011;57506;50.092;15.804;2023-05-29T02:54:53;1.13;;;0.20;;
70026;SDS011;57506;50.092;15.804;2023-05-29T02:57:21;1.60;;;0.30;;
70026;SDS011;57506;50.092;15.804;2023-05-29T02:59:47;1.70;;;0.30;;
70026;SDS011;57506;50.092;15.804;2023-05-29T03:02:14;1.50;;;0.20;;
70026;SDS011;57506;50.092;15.804;2023-05-29T03:04:39;1.50;;;0.20;;
70026;SDS011;57506;50.092;15.804;2023-05-29T03:07:05;1.40;;;0.20;;
70026;SDS011;57506;50.092;15.804;2023-05-29T03:09:31;1.63;;;0.22;;
70026;SDS011;57506;50.092;15.804;2023-05-29T03:11:57;1.50;;;0.20;;
70026;SDS011;57506;50.092;15.804;2023-05-29T03:14:23;1.50;;;0.30;;
70026;SDS011;57506;50.092;15.804;2023-05-29T03:16:48;1.38;;;0.22;;
70026;SDS011;57506;50.092;15.804;2023-05-29T03:19:15;1.60;;;0.20;;
70026;SDS011;57506;50.092;15.804;2023-05-29T03:21:41;1.70;;;0.30;;
70026;SDS011;57506;50.092;15.804;2023-05-29T03:24:06;1.53;;;0.27;;
70026;SDS011;57506;50.092;15.804;2023-05-29T03:26:32;1.30;;;0.20;;
70026;SDS011;57506;50.092;15.804;2023-05-29T03:28:57;1.50;;;0.20;;
70026;SDS011;57506;50.092;15.804;2023-05-29T03:31:23;1.53;;;0.27;;
70026;SDS011;57506;50.092;15.804;2023-05-29T03:33:48;1.40;;;0.30;;
70026;SDS011;57506;50.092;15.804;2023-05-29T03:36:14;1.60;;;0.20;;
70026;SDS011;57506;50.092;15.804;2023-05-29T03:38:43;1.65;;;0.30;;
70026;SDS011;57506;50.092;15.804;2023-05-29T03:41:08;1.63;;;0.30;;
70026;SDS011;57506;50.092;15.804;2023-05-29T03:43:34;1.40;;;0.20;;
70026;SDS011;57506;50.092;15.804;2023-05-29T03:46:01;1.27;;;0.20;;
70026;SDS011;57506;50.092;15.804;2023-05-29T03:48:26;1.10;;;0.20;;
70026;SDS011;57506;50.092;15.804;2023-05-29T03:50:52;1.08;;;0.20;;
70026;SDS011;57506;50.092;15.804;2023-05-29T03:53:17;1.03;;;0.20;;
70026;SDS011;57506;50.092;15.804;2023-05-29T03:55:43;1.50;;;0.20;;
70026;SDS011;57506;50.092;15.804;2023-05-29T03:58:09;1.27;;;0.20;;
70026;SDS011;57506;50.092;15.804;2023-05-29T04:00:37;1.70;;;0.30;;
70026;SDS011;57506;50.092;15.804;2023-05-29T04:03:03;1.50;;;0.20;;
70026;SDS011;57506;50.092;15.804;2023-05-29T04:05:29;1.60;;;0.30;;
70026;SDS011;57506;50.092;15.804;2023-05-29T04:07:55;1.60;;;0.30;;
70026;SDS011;57506;50.092;15.804;2023-05-29T04:10:21;1.23;;;0.20;;
70026;SDS011;57506;50.092;15.804;2023-05-29T04:12:47;1.20;;;0.20;;
70026;SDS011;57506;50.092;15.804;2023-05-29T04:15:12;1.40;;;0.20;;
70026;SDS011;57506;50.092;15.804;2023-05-29T04:17:38;1.40;;;0.40;;
70026;SDS011;57506;50.092;15.804;2023-05-29T04:20:03;1.50;;;0.40;;
70026;SDS011;57506;50.092;15.804;2023-05-29T04:22:34;1.30;;;0.20;;
70026;SDS011;57506;50.092;15.804;2023-05-29T04:25:03;1.42;;;0.20;;
70026;SDS011;57506;50.092;15.804;2023-05-29T04:27:32;1.40;;;0.20;;
70026;SDS011;57506;50.092;15.804;2023-05-29T04:30:02;1.45;;;0.20;;
70026;SDS011;57506;50.092;15.804;2023-05-29T04:32:32;1.30;;;0.20;;
70026;SDS011;57506;50.092;15.804;2023-05-29T04:34:58;1.10;;;0.20;;
70026;SDS011;57506;50.092;15.804;2023-05-29T04:37:28;1.58;;;0.30;;
70026;SDS011;57506;50.092;15.804;2023-05-29T04:39:54;1.42;;;0.20;;
70026;SDS011;57506;50.092;15.804;2023-05-29T04:42:21;1.35;;;0.20;;
70026;SDS011;57506;50.092;15.804;2023-05-29T04:44:47;1.90;;;0.30;;
70026;SDS011;57506;50.092;15.804;2023-05-29T04:47:14;1.50;;;0.20;;
70026;SDS011;57506;50.092;15.804;2023-05-29T04:49:41;1.45;;;0.20;;
70026;SDS011;57506;50.092;15.804;2023-05-29T04:52:06;1.80;;;0.30;;
70026;SDS011;57506;50.092;15.804;2023-05-29T04:54:32;1.95;;;0.40;;
70026;SDS011;57506;50.092;15.804;2023-05-29T04:57:00;1.50;;;0.30;;
70026;SDS011;57506;50.092;15.804;2023-05-29T04:59:25;1.70;;;0.30;;
70026;SDS011;57506;50.092;15.804;2023-05-29T05:01:51;2.20;;;0.90;;
70026;SDS011;57506;50.092;15.804;2023-05-29T05:04:16;1.77;;;0.37;;
70026;SDS011;57506;50.092;15.804;2023-05-29T05:06:42;1.50;;;0.20;;
70026;SDS011;57506;50.092;15.804;2023-05-29T05:09:09;1.70;;;0.30;;
70026;SDS011;57506;50.092;15.804;2023-05-29T05:11:35;1.50;;;0.20;;
70026;SDS011;57506;50.092;15.804;2023-05-29T05:14:00;1.43;;;0.20;;
70026;SDS011;57506;50.092;15.804;2023-05-29T05:16:26;1.55;;;0.40;;
70026;SDS011;57506;50.092;15.804;2023-05-29T05:18:51;1.73;;;0.30;;
70026;SDS011;57506;50.092;15.804;2023-05-29T05:21:17;1.70;;;0.30;;
70026;SDS011;57506;50.092;15.804;2023-05-29T05:23:42;1.60;;;0.20;;
70026;SDS011;57506;50.092;15.804;2023-05-29T05:26:08;1.57;;;0.20;;
70026;SDS011;57506;50.092;15.804;2023-05-29T05:28:33;1.40;;;0.20;;
70026;SDS011;57506;50.092;15.804;2023-05-29T05:30:59;1.80;;;0.30;;
70026;SDS011;57506;50.092;15.804;2023-05-29T05:33:26;1.90;;;0.50;;
70026;SDS011;57506;50.092;15.804;2023-05-29T05:35:52;1.70;;;0.30;;
70026;SDS011;57506;50.092;15.804;2023-05-29T05:38:17;1.70;;;0.30;;
70026;SDS011;57506;50.092;15.804;2023-05-29T05:40:43;5.10;;;3.83;;
70026;SDS011;57506;50.092;15.804;2023-05-29T05:43:10;1.58;;;0.28;;
70026;SDS011;57506;50.092;15.804;2023-05-29T05:45:35;1.40;;;0.28;;
70026;SDS011;57506;50.092;15.804;2023-05-29T05:48:02;1.40;;;0.20;;
70026;SDS011;57506;50.092;15.804;2023-05-29T05:50:28;1.77;;;0.30;;
70026;SDS011;57506;50.092;15.804;2023-05-29T05:52:54;1.50;;;0.20;;
70026;SDS011;57506;50.092;15.804;2023-05-29T05:55:20;1.90;;;0.30;;
70026;SDS011;57506;50.092;15.804;2023-05-29T05:57:45;1.65;;;0.30;;
70026;SDS011;57506;50.092;15.804;2023-05-29T06:00:11;2.07;;;0.40;;
70026;SDS011;57506;50.092;15.804;2023-05-29T06:02:38;1.90;;;0.40;;
70026;SDS011;57506;50.092;15.804;2023-05-29T06:05:07;1.20;;;0.20;;
70026;SDS011;57506;50.092;15.804;2023-05-29T06:07:34;1.63;;;0.30;;
70026;SDS011;57506;50.092;15.804;2023-05-29T06:10:00;1.60;;;0.30;;
70026;SDS011;57506;50.092;15.804;2023-05-29T06:12:26;2.00;;;0.50;;
70026;SDS011;57506;50.092;15.804;2023-05-29T06:14:52;1.80;;;0.30;;
70026;SDS011;57506;50.092;15.804;2023-05-29T06:17:18;2.17;;;0.60;;
70026;SDS011;57506;50.092;15.804;2023-05-29T06:19:43;1.90;;;0.50;;
70026;SDS011;57506;50.092;15.804;2023-05-29T06:22:13;2.80;;;0.85;;
70026;SDS011;57506;50.092;15.804;2023-05-29T06:24:39;2.00;;;0.50;;
70026;SDS011;57506;50.092;15.804;2023-05-29T06:27:04;2.70;;;0.80;;
70026;SDS011;57506;50.092;15.804;2023-05-29T06:29:31;1.40;;;0.20;;
70026;SDS011;57506;50.092;15.804;2023-05-29T06:31:57;2.75;;;1.25;;
70026;SDS011;57506;50.092;15.804;2023-05-29T06:34:23;1.95;;;0.50;;
70026;SDS011;57506;50.092;15.804;2023-05-29T06:36:49;2.30;;;0.90;;
70026;SDS011;57506;50.092;15.804;2023-05-29T06:39:14;2.53;;;0.80;;
70026;SDS011;57506;50.092;15.804;2023-05-29T06:41:40;2.40;;;1.02;;
70026;SDS011;57506;50.092;15.804;2023-05-29T06:44:06;2.87;;;2.50;;
70026;SDS011;57506;50.092;15.804;2023-05-29T06:46:31;1.85;;;0.60;;
70026;SDS011;57506;50.092;15.804;2023-05-29T06:48:57;1.80;;;0.40;;
70026;SDS011;57506;50.092;15.804;2023-05-29T06:51:22;2.00;;;0.47;;
70026;SDS011;57506;50.092;15.804;2023-05-29T06:53:47;2.05;;;0.50;;
70026;SDS011;57506;50.092;15.804;2023-05-29T06:56:13;1.63;;;0.30;;
70026;SDS011;57506;50.092;15.804;2023-05-29T06:58:38;1.80;;;0.47;;
70026;SDS011;57506;50.092;15.804;2023-05-29T07:01:05;1.90;;;0.40;;
70026;SDS011;57506;50.092;15.804;2023-05-29T07:03:30;2.10;;;0.60;;
70026;SDS011;57506;50.092;15.804;2023-05-29T07:05:56;2.07;;;0.50;;
70026;SDS011;57506;50.092;15.804;2023-05-29T07:08:22;2.10;;;0.50;;
70026;SDS011;57506;50.092;15.804;2023-05-29T07:10:48;2.10;;;0.50;;
70026;SDS011;57506;50.092;15.804;2023-05-29T07:13:15;2.40;;;1.00;;
70026;SDS011;57506;50.092;15.804;2023-05-29T07:15:41;2.70;;;0.77;;
70026;SDS011;57506;50.092;15.804;2023-05-29T07:18:07;2.10;;;0.70;;
70026;SDS011;57506;50.092;15.804;2023-05-29T07:20:32;2.00;;;0.50;;
70026;SDS011;57506;50.092;15.804;2023-05-29T07:22:58;1.83;;;0.50;;
70026;SDS011;57506;50.092;15.804;2023-05-29T07:25:23;2.80;;;1.30;;
70026;SDS011;57506;50.092;15.804;2023-05-29T07:27:49;3.33;;;1.10;;
70026;SDS011;57506;50.092;15.804;2023-05-29T07:30:14;2.80;;;1.00;;
70026;SDS011;57506;50.092;15.804;2023-05-29T07:32:40;2.00;;;0.60;;
70026;SDS011;57506;50.092;15.804;2023-05-29T07:35:06;5.07;;;1.27;;
70026;SDS011;57506;50.092;15.804;2023-05-29T07:37:32;6.55;;;0.63;;
70026;SDS011;57506;50.092;15.804;2023-05-29T07:39:59;1.98;;;0.70;;
70026;SDS011;57506;50.092;15.804;2023-05-29T07:42:24;2.23;;;0.80;;
70026;SDS011;57506;50.092;15.804;2023-05-29T07:44:50;1.90;;;0.50;;
70026;SDS011;57506;50.092;15.804;2023-05-29T07:47:16;3.83;;;1.48;;
70026;SDS011;57506;50.092;15.804;2023-05-29T07:49:41;4.20;;;1.50;;
70026;SDS011;57506;50.092;15.804;2023-05-29T07:52:07;2.10;;;0.60;;
70026;SDS011;57506;50.092;15.804;2023-05-29T07:54:33;2.03;;;0.60;;
70026;SDS011;57506;50.092;15.804;2023-05-29T07:56:59;2.10;;;0.60;;
70026;SDS011;57506;50.092;15.804;2023-05-29T07:59:24;2.40;;;0.95;;
70026;SDS011;57506;50.092;15.804;2023-05-29T08:01:51;1.90;;;0.57;;
70026;SDS011;57506;50.092;15.804;2023-05-29T08:04:16;2.60;;;0.93;;
70026;SDS011;57506;50.092;15.804;2023-05-29T08:06:42;2.50;;;1.23;;
70026;SDS011;57506;50.092;15.804;2023-05-29T08:09:08;2.30;;;0.77;;
70026;SDS011;57506;50.092;15.804;2023-05-29T08:11:35;2.08;;;0.60;;
70026;SDS011;57506;50.092;15.804;2023-05-29T08:14:01;2.10;;;0.55;;
70026;SDS011;57506;50.092;15.804;2023-05-29T08:16:27;2.20;;;0.53;;
70026;SDS011;57506;50.092;15.804;2023-05-29T08:18:52;2.30;;;0.85;;
70026;SDS011;57506;50.092;15.804;2023-05-29T08:21:18;4.43;;;1.67;;
70026;SDS011;57506;50.092;15.804;2023-05-29T08:23:44;2.30;;;0.77;;
70026;SDS011;57506;50.092;15.804;2023-05-29T08:26:09;1.80;;;0.40;;
70026;SDS011;57506;50.092;15.804;2023-05-29T08:28:35;2.20;;;0.80;;
70026;SDS011;57506;50.092;15.804;2023-05-29T08:31:00;2.05;;;0.68;;
70026;SDS011;57506;50.092;15.804;2023-05-29T08:33:26;4.50;;;0.90;;
70026;SDS011;57506;50.092;15.804;2023-05-29T08:35:51;1.93;;;0.43;;
70026;SDS011;57506;50.092;15.804;2023-05-29T08:38:17;2.00;;;0.50;;
70026;SDS011;57506;50.092;15.804;2023-05-29T08:40:42;2.15;;;0.65;;
70026;SDS011;57506;50.092;15.804;2023-05-29T08:45:46;2.30;;;0.80;;
70026;SDS011;57506;50.092;15.804;2023-05-29T08:48:17;2.45;;;1.02;;
70026;SDS011;57506;50.092;15.804;2023-05-29T08:50:44;2.20;;;0.80;;
70026;SDS011;57506;50.092;15.804;2023-05-29T08:53:13;4.67;;;1.67;;
70026;SDS011;57506;50.092;15.804;2023-05-29T08:55:44;2.67;;;1.13;;
70026;SDS011;57506;50.092;15.804;2023-05-29T08:58:11;3.47;;;1.35;;
70026;SDS011;57506;50.092;15.804;2023-05-29T09:00:38;5.32;;;1.48;;
70026;SDS011;57506;50.092;15.804;2023-05-29T09:03:05;2.42;;;0.88;;
70026;SDS011;57506;50.092;15.804;2023-05-29T09:05:32;3.13;;;1.27;;
70026;SDS011;57506;50.092;15.804;2023-05-29T09:07:57;2.88;;;1.00;;
70026;SDS011;57506;50.092;15.804;2023-05-29T09:10:23;2.30;;;0.82;;
70026;SDS011;57506;50.092;15.804;2023-05-29T09:12:50;2.10;;;0.60;;
70026;SDS011;57506;50.092;15.804;2023-05-29T09:15:20;2.20;;;0.70;;
70026;SDS011;57506;50.092;15.804;2023-05-29T09:17:57;2.22;;;0.93;;
70026;SDS011;57506;50.092;15.804;2023-05-29T09:20:23;2.15;;;0.60;;
70026;SDS011;57506;50.092;15.804;2023-05-29T09:22:56;2.60;;;0.80;;
70026;SDS011;57506;50.092;15.804;2023-05-29T09:25:23;2.10;;;0.50;;
70026;SDS011;57506;50.092;15.804;2023-05-29T09:27:59;2.20;;;0.70;;
70026;SDS011;57506;50.092;15.804;2023-05-29T09:30:31;2.10;;;0.60;;
70026;SDS011;57506;50.092;15.804;2023-05-29T09:32:58;2.47;;;0.82;;
70026;SDS011;57506;50.092;15.804;2023-05-29T09:35:25;2.30;;;0.70;;
70026;SDS011;57506;50.092;15.804;2023-05-29T09:37:51;2.40;;;0.90;;
70026;SDS011;57506;50.092;15.804;2023-05-29T09:40:17;2.20;;;0.73;;
70026;SDS011;57506;50.092;15.804;2023-05-29T09:42:43;2.60;;;1.30;;
70026;SDS011;57506;50.092;15.804;2023-05-29T09:45:08;2.03;;;0.60;;
70026;SDS011;57506;50.092;15.804;2023-05-29T09:47:34;2.10;;;0.53;;
70026;SDS011;57506;50.092;15.804;2023-05-29T09:50:00;2.00;;;0.40;;
70026;SDS011;57506;50.092;15.804;2023-05-29T09:52:26;2.53;;;0.70;;
70026;SDS011;57506;50.092;15.804;2023-05-29T09:54:55;2.23;;;0.70;;
70026;SDS011;57506;50.092;15.804;2023-05-29T09:57:22;3.33;;;1.50;;
70026;SDS011;57506;50.092;15.804;2023-05-29T09:59:48;2.72;;;0.90;;
70026;SDS011;57506;50.092;15.804;2023-05-29T10:02:16;2.65;;;0.98;;
70026;SDS011;57506;50.092;15.804;2023-05-29T10:04:43;2.00;;;0.47;;
70026;SDS011;57506;50.092;15.804;2023-05-29T10:07:27;2.73;;;0.93;;
70026;SDS011;57506;50.092;15.804;2023-05-29T10:10:00;3.40;;;1.27;;
70026;SDS011;57506;50.092;15.804;2023-05-29T10:12:37;3.75;;;1.55;;
70026;SDS011;57506;50.092;15.804;2023-05-29T10:15:16;2.20;;;0.60;;
70026;SDS011;57506;50.092;15.804;2023-05-29T10:17:49;2.53;;;1.08;;
70026;SDS011;57506;50.092;15.804;2023-05-29T10:20:16;2.73;;;0.93;;
70026;SDS011;57506;50.092;15.804;2023-05-29T10:22:45;2.30;;;0.80;;
70026;SDS011;57506;50.092;15.804;2023-05-29T10:25:13;2.35;;;0.65;;
70026;SDS011;57506;50.092;15.804;2023-05-29T10:27:40;2.10;;;0.60;;
70026;SDS011;57506;50.092;15.804;2023-05-29T10:36:06;3.45;;;1.23;;
70026;SDS011;57506;50.092;15.804;2023-05-29T10:38:44;2.40;;;0.80;;
70026;SDS011;57506;50.092;15.804;2023-05-29T10:43:58;12.32;;;1.10;;
70026;SDS011;57506;50.092;15.804;2023-05-29T10:49:19;2.20;;;0.70;;
70026;SDS011;57506;50.092;15.804;2023-05-29T10:51:46;2.15;;;0.70;;
70026;SDS011;57506;50.092;15.804;2023-05-29T10:54:12;2.38;;;0.90;;
70026;SDS011;57506;50.092;15.804;2023-05-29T10:56:39;3.38;;;1.42;;
70026;SDS011;57506;50.092;15.804;2023-05-29T10:59:06;3.80;;;1.40;;
70026;SDS011;57506;50.092;15.804;2023-05-29T11:01:33;2.55;;;0.95;;
70026;SDS011;57506;50.092;15.804;2023-05-29T11:06:42;2.40;;;0.88;;
70026;SDS011;57506;50.092;15.804;2023-05-29T11:09:30;3.90;;;1.10;;
70026;SDS011;57506;50.092;15.804;2023-05-29T11:15:10;3.33;;;0.95;;
70026;SDS011;57506;50.092;15.804;2023-05-29T11:20:05;2.17;;;0.63;;
70026;SDS011;57506;50.092;15.804;2023-05-29T11:22:48;2.83;;;1.10;;
70026;SDS011;57506;50.092;15.804;2023-05-29T11:25:26;2.78;;;1.30;;
70026;SDS011;57506;50.092;15.804;2023-05-29T11:27:52;5.70;;;1.60;;
70026;SDS011;57506;50.092;15.804;2023-05-29T11:30:18;3.17;;;1.10;;
70026;SDS011;57506;50.092;15.804;2023-05-29T11:32:45;3.67;;;1.30;;
70026;SDS011;57506;50.092;15.804;2023-05-29T11:35:11;2.57;;;1.17;;
70026;SDS011;57506;50.092;15.804;2023-05-29T11:37:38;3.80;;;1.00;;
70026;SDS011;57506;50.092;15.804;2023-05-29T11:40:08;2.45;;;0.85;;
70026;SDS011;57506;50.092;15.804;2023-05-29T11:42:34;2.20;;;0.75;;
70026;SDS011;57506;50.092;15.804;2023-05-29T11:45:11;2.50;;;0.80;;
70026;SDS011;57506;50.092;15.804;2023-05-29T11:47:55;3.13;;;0.90;;
70026;SDS011;57506;50.092;15.804;2023-05-29T11:50:23;2.20;;;0.60;;
70026;SDS011;57506;50.092;15.804;2023-05-29T11:52:50;4.75;;;1.25;;
70026;SDS011;57506;50.092;15.804;2023-05-29T11:55:19;4.65;;;1.60;;
70026;SDS011;57506;50.092;15.804;2023-05-29T11:57:45;4.75;;;1.95;;
70026;SDS011;57506;50.092;15.804;2023-05-29T12:00:14;2.97;;;1.63;;
70026;SDS011;57506;50.092;15.804;2023-05-29T12:02:42;3.75;;;1.33;;
70026;SDS011;57506;50.092;15.804;2023-05-29T12:05:08;3.60;;;0.80;;
70026;SDS011;57506;50.092;15.804;2023-05-29T12:07:35;4.40;;;0.80;;
70026;SDS011;57506;50.092;15.804;2023-05-29T12:10:14;2.83;;;1.17;;
70026;SDS011;57506;50.092;15.804;2023-05-29T12:12:41;5.13;;;1.70;;
70026;SDS011;57506;50.092;15.804;2023-05-29T12:15:07;3.47;;;1.25;;
70026;SDS011;57506;50.092;15.804;2023-05-29T12:17:37;2.15;;;0.55;;
70026;SDS011;57506;50.092;15.804;2023-05-29T12:20:03;2.10;;;0.60;;
70026;SDS011;57506;50.092;15.804;2023-05-29T12:22:36;3.05;;;1.30;;
70026;SDS011;57506;50.092;15.804;2023-05-29T12:27:37;7.03;;;1.55;;
70026;SDS011;57506;50.092;15.804;2023-05-29T12:30:08;3.15;;;0.98;;
70026;SDS011;57506;50.092;15.804;2023-05-29T12:32:48;2.75;;;1.10;;
70026;SDS011;57506;50.092;15.804;2023-05-29T12:35:18;2.25;;;0.75;;
70026;SDS011;57506;50.092;15.804;2023-05-29T12:37:45;2.20;;;0.50;;
70026;SDS011;57506;50.092;15.804;2023-05-29T12:42:45;2.10;;;0.60;;
70026;SDS011;57506;50.092;15.804;2023-05-29T12:45:14;2.60;;;1.10;;
70026;SDS011;57506;50.092;15.804;2023-05-29T12:47:46;3.05;;;1.42;;
70026;SDS011;57506;50.092;15.804;2023-05-29T12:50:23;4.40;;;1.57;;
70026;SDS011;57506;50.092;15.804;2023-05-29T12:53:02;2.55;;;1.10;;
70026;SDS011;57506;50.092;15.804;2023-05-29T12:55:38;2.40;;;0.70;;
70026;SDS011;57506;50.092;15.804;2023-05-29T12:58:05;5.28;;;1.80;;
70026;SDS011;57506;50.092;15.804;2023-05-29T13:00:35;2.30;;;0.88;;
70026;SDS011;57506;50.092;15.804;2023-05-29T13:03:03;3.10;;;1.23;;
70026;SDS011;57506;50.092;15.804;2023-05-29T13:05:29;2.30;;;0.75;;
70026;SDS011;57506;50.092;15.804;2023-05-29T13:07:55;4.35;;;1.50;;
70026;SDS011;57506;50.092;15.804;2023-05-29T13:10:21;5.00;;;0.98;;
70026;SDS011;57506;50.092;15.804;2023-05-29T13:12:48;5.23;;;1.97;;
70026;SDS011;57506;50.092;15.804;2023-05-29T13:15:18;3.20;;;1.48;;
70026;SDS011;57506;50.092;15.804;2023-05-29T13:17:44;3.47;;;1.27;;
70026;SDS011;57506;50.092;15.804;2023-05-29T13:20:10;3.42;;;1.40;;
70026;SDS011;57506;50.092;15.804;2023-05-29T13:22:38;3.78;;;1.90;;
70026;SDS011;57506;50.092;15.804;2023-05-29T13:25:05;2.90;;;1.27;;
70026;SDS011;57506;50.092;15.804;2023-05-29T13:27:32;2.33;;;0.90;;
70026;SDS011;57506;50.092;15.804;2023-05-29T13:30:02;2.10;;;0.50;;
70026;SDS011;57506;50.092;15.804;2023-05-29T13:32:29;2.30;;;0.80;;
70026;SDS011;57506;50.092;15.804;2023-05-29T13:34:54;3.17;;;1.47;;
70026;SDS011;57506;50.092;15.804;2023-05-29T13:37:20;3.08;;;1.10;;
70026;SDS011;57506;50.092;15.804;2023-05-29T13:39:46;2.67;;;0.90;;
70026;SDS011;57506;50.092;15.804;2023-05-29T13:42:11;2.47;;;0.95;;
70026;SDS011;57506;50.092;15.804;2023-05-29T13:44:37;2.30;;;0.80;;
70026;SDS011;57506;50.092;15.804;2023-05-29T13:47:04;2.70;;;1.17;;
70026;SDS011;57506;50.092;15.804;2023-05-29T13:49:31;2.30;;;0.77;;
70026;SDS011;57506;50.092;15.804;2023-05-29T13:51:56;2.97;;;1.23;;
70026;SDS011;57506;50.092;15.804;2023-05-29T13:54:22;7.03;;;0.88;;
70026;SDS011;57506;50.092;15.804;2023-05-29T13:56:47;3.40;;;1.30;;
70026;SDS011;57506;50.092;15.804;2023-05-29T13:59:13;5.57;;;2.03;;
70026;SDS011;57506;50.092;15.804;2023-05-29T14:01:40;3.13;;;1.00;;
70026;SDS011;57506;50.092;15.804;2023-05-29T14:04:05;2.10;;;0.63;;
70026;SDS011;57506;50.092;15.804;2023-05-29T14:06:32;2.93;;;1.03;;
70026;SDS011;57506;50.092;15.804;2023-05-29T14:08:58;7.72;;;1.05;;
70026;SDS011;57506;50.092;15.804;2023-05-29T14:11:24;3.03;;;1.13;;
70026;SDS011;57506;50.092;15.804;2023-05-29T14:13:50;3.50;;;1.88;;
70026;SDS011;57506;50.092;15.804;2023-05-29T14:16:15;3.07;;;1.13;;
70026;SDS011;57506;50.092;15.804;2023-05-29T14:18:41;2.43;;;1.07;;
70026;SDS011;57506;50.092;15.804;2023-05-29T14:21:07;2.90;;;1.45;;
70026;SDS011;57506;50.092;15.804;2023-05-29T14:23:33;2.50;;;1.10;;
70026;SDS011;57506;50.092;15.804;2023-05-29T14:25:59;4.63;;;1.30;;
70026;SDS011;57506;50.092;15.804;2023-05-29T14:28:25;2.30;;;0.73;;
70026;SDS011;57506;50.092;15.804;2023-05-29T14:30:51;4.07;;;1.47;;
70026;SDS011;57506;50.092;15.804;2023-05-29T14:33:16;3.27;;;1.53;;
70026;SDS011;57506;50.092;15.804;2023-05-29T14:35:42;2.70;;;1.10;;
70026;SDS011;57506;50.092;15.804;2023-05-29T14:38:07;4.70;;;2.07;;
70026;SDS011;57506;50.092;15.804;2023-05-29T14:40:33;3.63;;;1.35;;
70026;SDS011;57506;50.092;15.804;2023-05-29T14:42:59;2.93;;;1.37;;
70026;SDS011;57506;50.092;15.804;2023-05-29T14:45:25;4.05;;;1.85;;
70026;SDS011;57506;50.092;15.804;2023-05-29T14:47:51;2.77;;;1.30;;
70026;SDS011;57506;50.092;15.804;2023-05-29T14:50:16;2.35;;;1.10;;
70026;SDS011;57506;50.092;15.804;2023-05-29T14:52:42;2.80;;;1.50;;
70026;SDS011;57506;50.092;15.804;2023-05-29T14:55:07;6.50;;;1.77;;
70026;SDS011;57506;50.092;15.804;2023-05-29T14:57:33;3.45;;;1.55;;
70026;SDS011;57506;50.092;15.804;2023-05-29T15:00:00;2.38;;;1.13;;
70026;SDS011;57506;50.092;15.804;2023-05-29T15:02:26;2.70;;;1.60;;